ストックホルム/アーランダ の空港の天気 - METARとTAF

ストックホルム・アーランダ空港 ( ESSA / ARN ) - スウェーデン ストックホルム
飛行場実況気象(Metar)
観測時間05/27 01:20 CEST (05/26 23:20 UTC)
風向・風速西南西 3m/s
視程10km以上
天気現象
なし
気温12℃
湿度67%
気圧1028hPa
METARESSA 262320Z 24006KT CAVOK 12/06 Q1028 NOSIG
過去の天気等 Google飛行場航空写真 Wunderground天気予報

過去48時間のMETAR

飛行場予報(TAF)
発表時間: 5/26 19:30 CEST (5/26 17:30 UTC)
予報対象時間: 26日20時 CEST ~ 27日20時 CEST
風向・風速南西 3m/s
視程10km以上
なし
27日13時 CEST ~ 27日16時 CEST に徐々に
風向・風速北 5m/s
27日13時 CEST ~ 27日20時 CEST に一時的に
天気現象しゅう雨
全天の8割程度の積乱雲 雲底高度 1070m
TAF ESSA 261730Z 2618/2718 22006KT CAVOK
BECMG 2711/2714 01010KT
TEMPO 2711/2718 SHRA BKN035CB